sensor_id;sensor_type;location;lat;lon;timestamp;temperature;humidity
2935;DHT22;2462;51.456;7.248;2023-01-10T00:01:57;11.60;99.90
2935;DHT22;2462;51.456;7.248;2023-01-10T00:04:23;11.60;99.90
2935;DHT22;2462;51.456;7.248;2023-01-10T00:06:51;11.60;99.90
2935;DHT22;2462;51.456;7.248;2023-01-10T00:09:16;11.60;99.90
2935;DHT22;2462;51.456;7.248;2023-01-10T00:11:42;11.60;99.90
2935;DHT22;2462;51.456;7.248;2023-01-10T00:14:27;11.60;99.90
2935;DHT22;2462;51.456;7.248;2023-01-10T00:16:53;11.60;99.90
2935;DHT22;2462;51.456;7.248;2023-01-10T00:19:19;11.60;99.90
2935;DHT22;2462;51.456;7.248;2023-01-10T00:21:44;11.60;99.90
2935;DHT22;2462;51.456;7.248;2023-01-10T00:24:10;11.60;99.90
2935;DHT22;2462;51.456;7.248;2023-01-10T00:26:54;11.60;99.90
2935;DHT22;2462;51.456;7.248;2023-01-10T00:29:27;11.60;99.90
2935;DHT22;2462;51.456;7.248;2023-01-10T00:31:54;11.60;99.90
2935;DHT22;2462;51.456;7.248;2023-01-10T00:34:19;11.60;99.90
2935;DHT22;2462;51.456;7.248;2023-01-10T00:36:46;11.60;99.90
2935;DHT22;2462;51.456;7.248;2023-01-10T00:39:13;11.60;99.90
2935;DHT22;2462;51.456;7.248;2023-01-10T00:41:39;11.60;99.90
2935;DHT22;2462;51.456;7.248;2023-01-10T00:44:24;11.60;99.90
2935;DHT22;2462;51.456;7.248;2023-01-10T00:46:50;11.60;99.90
2935;DHT22;2462;51.456;7.248;2023-01-10T00:49:16;11.60;99.90
2935;DHT22;2462;51.456;7.248;2023-01-10T00:51:42;11.60;99.90
2935;DHT22;2462;51.456;7.248;2023-01-10T00:54:08;11.60;99.90
2935;DHT22;2462;51.456;7.248;2023-01-10T00:56:34;11.60;99.90
2935;DHT22;2462;51.456;7.248;2023-01-10T00:58:59;11.60;99.90
2935;DHT22;2462;51.456;7.248;2023-01-10T01:01:25;11.60;99.90
2935;DHT22;2462;51.456;7.248;2023-01-10T01:03:51;11.60;99.90
2935;DHT22;2462;51.456;7.248;2023-01-10T01:06:16;11.60;99.90
2935;DHT22;2462;51.456;7.248;2023-01-10T01:08:42;11.60;99.90
2935;DHT22;2462;51.456;7.248;2023-01-10T01:11:07;11.60;99.90
2935;DHT22;2462;51.456;7.248;2023-01-10T01:13:33;11.60;99.90
2935;DHT22;2462;51.456;7.248;2023-01-10T01:15:59;11.60;99.90
2935;DHT22;2462;51.456;7.248;2023-01-10T01:18:25;11.60;99.90
2935;DHT22;2462;51.456;7.248;2023-01-10T01:20:56;11.60;99.90
2935;DHT22;2462;51.456;7.248;2023-01-10T01:23:23;11.60;99.90
2935;DHT22;2462;51.456;7.248;2023-01-10T01:25:50;11.60;99.90
2935;DHT22;2462;51.456;7.248;2023-01-10T01:28:16;11.60;99.90
2935;DHT22;2462;51.456;7.248;2023-01-10T01:30:41;11.60;99.90
2935;DHT22;2462;51.456;7.248;2023-01-10T01:33:07;11.60;99.90
2935;DHT22;2462;51.456;7.248;2023-01-10T01:35:32;11.60;99.90
2935;DHT22;2462;51.456;7.248;2023-01-10T01:37:58;11.60;99.90
2935;DHT22;2462;51.456;7.248;2023-01-10T01:40:24;11.60;99.90
2935;DHT22;2462;51.456;7.248;2023-01-10T01:42:50;11.60;99.90
2935;DHT22;2462;51.456;7.248;2023-01-10T01:47:50;11.60;99.90
2935;DHT22;2462;51.456;7.248;2023-01-10T01:50:42;11.60;99.90
2935;DHT22;2462;51.456;7.248;2023-01-10T01:53:23;11.60;99.90
2935;DHT22;2462;51.456;7.248;2023-01-10T01:55:50;11.50;99.90
2935;DHT22;2462;51.456;7.248;2023-01-10T01:58:23;11.50;99.90
2935;DHT22;2462;51.456;7.248;2023-01-10T02:00:50;11.50;99.90
2935;DHT22;2462;51.456;7.248;2023-01-10T02:03:16;11.50;99.90
2935;DHT22;2462;51.456;7.248;2023-01-10T02:05:42;11.50;99.90
2935;DHT22;2462;51.456;7.248;2023-01-10T02:08:09;11.50;99.90
2935;DHT22;2462;51.456;7.248;2023-01-10T02:10:52;11.40;99.90
2935;DHT22;2462;51.456;7.248;2023-01-10T02:13:22;11.40;99.90
2935;DHT22;2462;51.456;7.248;2023-01-10T02:15:48;11.40;99.90
2935;DHT22;2462;51.456;7.248;2023-01-10T02:18:14;11.50;99.90
2935;DHT22;2462;51.456;7.248;2023-01-10T02:23:39;11.50;99.90
2935;DHT22;2462;51.456;7.248;2023-01-10T02:26:33;11.50;99.90
2935;DHT22;2462;51.456;7.248;2023-01-10T02:31:59;11.50;99.90
2935;DHT22;2462;51.456;7.248;2023-01-10T02:34:38;11.50;99.90
2935;DHT22;2462;51.456;7.248;2023-01-10T02:39:38;11.50;99.90
2935;DHT22;2462;51.456;7.248;2023-01-10T02:42:07;11.50;99.90
2935;DHT22;2462;51.456;7.248;2023-01-10T02:47:25;11.50;99.90
2935;DHT22;2462;51.456;7.248;2023-01-10T02:49:51;11.50;99.90
2935;DHT22;2462;51.456;7.248;2023-01-10T02:52:23;11.50;99.90
2935;DHT22;2462;51.456;7.248;2023-01-10T02:54:51;11.50;99.90
2935;DHT22;2462;51.456;7.248;2023-01-10T02:57:27;11.50;99.90
2935;DHT22;2462;51.456;7.248;2023-01-10T03:00:13;11.50;99.90
2935;DHT22;2462;51.456;7.248;2023-01-10T03:02:54;11.50;99.90
2935;DHT22;2462;51.456;7.248;2023-01-10T03:08:34;11.50;99.90
2935;DHT22;2462;51.456;7.248;2023-01-10T03:11:05;11.50;99.90
2935;DHT22;2462;51.456;7.248;2023-01-10T03:13:46;11.50;99.90
2935;DHT22;2462;51.456;7.248;2023-01-10T03:16:16;11.50;99.90
2935;DHT22;2462;51.456;7.248;2023-01-10T03:19:09;11.50;99.90
2935;DHT22;2462;51.456;7.248;2023-01-10T03:21:37;11.50;99.90
2935;DHT22;2462;51.456;7.248;2023-01-10T03:24:08;11.40;99.90
2935;DHT22;2462;51.456;7.248;2023-01-10T03:27:00;11.40;99.90
2935;DHT22;2462;51.456;7.248;2023-01-10T03:32:14;11.40;99.90
2935;DHT22;2462;51.456;7.248;2023-01-10T03:34:41;11.40;99.90
2935;DHT22;2462;51.456;7.248;2023-01-10T03:45:34;11.30;99.90
2935;DHT22;2462;51.456;7.248;2023-01-10T03:48:04;11.30;99.90
2935;DHT22;2462;51.456;7.248;2023-01-10T03:50:31;11.30;99.90
2935;DHT22;2462;51.456;7.248;2023-01-10T03:52:58;11.30;99.90
2935;DHT22;2462;51.456;7.248;2023-01-10T03:55:27;11.30;99.90
2935;DHT22;2462;51.456;7.248;2023-01-10T03:57:53;11.30;99.90
2935;DHT22;2462;51.456;7.248;2023-01-10T04:00:19;11.30;99.90
2935;DHT22;2462;51.456;7.248;2023-01-10T04:02:45;11.30;99.90
2935;DHT22;2462;51.456;7.248;2023-01-10T04:05:11;11.30;99.90
2935;DHT22;2462;51.456;7.248;2023-01-10T04:07:36;11.30;99.90
2935;DHT22;2462;51.456;7.248;2023-01-10T04:10:06;11.30;99.90
2935;DHT22;2462;51.456;7.248;2023-01-10T04:12:31;11.30;99.90
2935;DHT22;2462;51.456;7.248;2023-01-10T04:14:57;11.30;99.90
2935;DHT22;2462;51.456;7.248;2023-01-10T04:17:22;11.30;99.90
2935;DHT22;2462;51.456;7.248;2023-01-10T04:19:48;11.30;99.90
2935;DHT22;2462;51.456;7.248;2023-01-10T04:22:14;11.30;99.90
2935;DHT22;2462;51.456;7.248;2023-01-10T04:24:39;11.30;99.90
2935;DHT22;2462;51.456;7.248;2023-01-10T04:27:05;11.30;99.90
2935;DHT22;2462;51.456;7.248;2023-01-10T04:29:31;11.30;99.90
2935;DHT22;2462;51.456;7.248;2023-01-10T04:31:57;11.30;99.90
2935;DHT22;2462;51.456;7.248;2023-01-10T04:34:22;11.30;99.90
2935;DHT22;2462;51.456;7.248;2023-01-10T04:36:48;11.30;99.90
2935;DHT22;2462;51.456;7.248;2023-01-10T04:39:14;11.30;99.90
2935;DHT22;2462;51.456;7.248;2023-01-10T04:41:40;11.30;99.90
2935;DHT22;2462;51.456;7.248;2023-01-10T04:44:06;11.30;99.90
2935;DHT22;2462;51.456;7.248;2023-01-10T04:46:32;11.30;99.90
2935;DHT22;2462;51.456;7.248;2023-01-10T04:48:57;11.30;99.90
2935;DHT22;2462;51.456;7.248;2023-01-10T04:51:24;11.30;99.90
2935;DHT22;2462;51.456;7.248;2023-01-10T04:53:50;11.30;99.90
2935;DHT22;2462;51.456;7.248;2023-01-10T04:56:17;11.30;99.90
2935;DHT22;2462;51.456;7.248;2023-01-10T04:58:43;11.30;99.90
2935;DHT22;2462;51.456;7.248;2023-01-10T05:01:14;11.30;99.90
2935;DHT22;2462;51.456;7.248;2023-01-10T05:03:40;11.30;99.90
2935;DHT22;2462;51.456;7.248;2023-01-10T05:06:06;11.30;99.90
2935;DHT22;2462;51.456;7.248;2023-01-10T05:08:32;11.30;99.90
2935;DHT22;2462;51.456;7.248;2023-01-10T05:10:58;11.30;99.90
2935;DHT22;2462;51.456;7.248;2023-01-10T05:13:24;11.30;99.90
2935;DHT22;2462;51.456;7.248;2023-01-10T05:15:54;11.30;99.90
2935;DHT22;2462;51.456;7.248;2023-01-10T05:18:20;11.30;99.90
2935;DHT22;2462;51.456;7.248;2023-01-10T05:20:46;11.30;99.90
2935;DHT22;2462;51.456;7.248;2023-01-10T05:23:11;11.30;99.90
2935;DHT22;2462;51.456;7.248;2023-01-10T05:25:37;11.20;99.90
2935;DHT22;2462;51.456;7.248;2023-01-10T05:28:03;11.20;99.90
2935;DHT22;2462;51.456;7.248;2023-01-10T05:30:28;11.20;99.90
2935;DHT22;2462;51.456;7.248;2023-01-10T05:32:54;11.20;99.90
2935;DHT22;2462;51.456;7.248;2023-01-10T05:35:19;11.20;99.90
2935;DHT22;2462;51.456;7.248;2023-01-10T05:37:45;11.20;99.90
2935;DHT22;2462;51.456;7.248;2023-01-10T05:40:11;11.20;99.90
2935;DHT22;2462;51.456;7.248;2023-01-10T05:42:36;11.20;99.90
2935;DHT22;2462;51.456;7.248;2023-01-10T05:45:03;11.20;99.90
2935;DHT22;2462;51.456;7.248;2023-01-10T05:47:28;11.10;99.90
2935;DHT22;2462;51.456;7.248;2023-01-10T05:49:54;11.20;99.90
2935;DHT22;2462;51.456;7.248;2023-01-10T05:52:19;11.20;99.90
2935;DHT22;2462;51.456;7.248;2023-01-10T05:54:45;11.20;99.90
2935;DHT22;2462;51.456;7.248;2023-01-10T05:57:11;11.20;99.90
2935;DHT22;2462;51.456;7.248;2023-01-10T05:59:36;11.20;99.90
2935;DHT22;2462;51.456;7.248;2023-01-10T06:02:02;11.10;99.90
2935;DHT22;2462;51.456;7.248;2023-01-10T06:04:28;11.20;99.90
2935;DHT22;2462;51.456;7.248;2023-01-10T06:06:53;11.10;99.90
2935;DHT22;2462;51.456;7.248;2023-01-10T06:09:19;11.10;99.90
2935;DHT22;2462;51.456;7.248;2023-01-10T06:11:44;11.10;99.90
2935;DHT22;2462;51.456;7.248;2023-01-10T06:14:10;11.10;99.90
2935;DHT22;2462;51.456;7.248;2023-01-10T06:16:35;11.10;99.90
2935;DHT22;2462;51.456;7.248;2023-01-10T06:19:01;11.10;99.90
2935;DHT22;2462;51.456;7.248;2023-01-10T06:21:26;11.10;99.90
2935;DHT22;2462;51.456;7.248;2023-01-10T06:23:52;11.10;99.90
2935;DHT22;2462;51.456;7.248;2023-01-10T06:26:17;11.10;99.90
2935;DHT22;2462;51.456;7.248;2023-01-10T06:28:43;11.10;99.90
2935;DHT22;2462;51.456;7.248;2023-01-10T06:31:09;11.10;99.90
2935;DHT22;2462;51.456;7.248;2023-01-10T06:33:35;11.10;99.90
2935;DHT22;2462;51.456;7.248;2023-01-10T06:36:00;11.10;99.90
2935;DHT22;2462;51.456;7.248;2023-01-10T06:38:26;11.10;99.90
2935;DHT22;2462;51.456;7.248;2023-01-10T06:40:52;11.10;99.90
2935;DHT22;2462;51.456;7.248;2023-01-10T06:43:17;11.10;99.90
2935;DHT22;2462;51.456;7.248;2023-01-10T06:45:43;11.10;99.90
2935;DHT22;2462;51.456;7.248;2023-01-10T06:48:08;11.10;99.90
2935;DHT22;2462;51.456;7.248;2023-01-10T06:50:34;11.10;99.90
2935;DHT22;2462;51.456;7.248;2023-01-10T06:53:03;11.10;99.90
2935;DHT22;2462;51.456;7.248;2023-01-10T06:55:30;11.10;99.90
2935;DHT22;2462;51.456;7.248;2023-01-10T06:58:00;11.10;99.90
2935;DHT22;2462;51.456;7.248;2023-01-10T07:00:27;11.10;99.90
2935;DHT22;2462;51.456;7.248;2023-01-10T07:02:56;11.20;99.90
2935;DHT22;2462;51.456;7.248;2023-01-10T07:05:22;11.20;99.90
2935;DHT22;2462;51.456;7.248;2023-01-10T07:07:48;11.20;99.90
2935;DHT22;2462;51.456;7.248;2023-01-10T07:10:13;11.10;99.90
2935;DHT22;2462;51.456;7.248;2023-01-10T07:12:39;11.10;99.90
2935;DHT22;2462;51.456;7.248;2023-01-10T07:15:05;11.10;99.90
2935;DHT22;2462;51.456;7.248;2023-01-10T07:17:31;11.10;99.90
2935;DHT22;2462;51.456;7.248;2023-01-10T07:19:56;11.10;99.90
2935;DHT22;2462;51.456;7.248;2023-01-10T07:22:22;11.20;99.90
2935;DHT22;2462;51.456;7.248;2023-01-10T07:24:47;11.20;99.90
2935;DHT22;2462;51.456;7.248;2023-01-10T07:27:13;11.20;99.90
2935;DHT22;2462;51.456;7.248;2023-01-10T07:29:38;11.20;99.90
2935;DHT22;2462;51.456;7.248;2023-01-10T07:32:04;11.20;99.90
2935;DHT22;2462;51.456;7.248;2023-01-10T07:34:30;11.20;99.90
2935;DHT22;2462;51.456;7.248;2023-01-10T07:36:55;11.20;99.90
2935;DHT22;2462;51.456;7.248;2023-01-10T07:39:21;11.30;99.90
2935;DHT22;2462;51.456;7.248;2023-01-10T07:41:47;11.20;99.90
2935;DHT22;2462;51.456;7.248;2023-01-10T07:44:13;11.30;99.90
2935;DHT22;2462;51.456;7.248;2023-01-10T07:46:38;11.20;99.90
2935;DHT22;2462;51.456;7.248;2023-01-10T07:49:04;11.20;99.90
2935;DHT22;2462;51.456;7.248;2023-01-10T07:51:30;11.20;99.90
2935;DHT22;2462;51.456;7.248;2023-01-10T07:53:56;11.20;99.90
2935;DHT22;2462;51.456;7.248;2023-01-10T07:56:21;11.20;99.90
2935;DHT22;2462;51.456;7.248;2023-01-10T07:58:47;11.20;99.90
2935;DHT22;2462;51.456;7.248;2023-01-10T08:01:12;11.20;99.90
2935;DHT22;2462;51.456;7.248;2023-01-10T08:03:38;11.20;99.90
2935;DHT22;2462;51.456;7.248;2023-01-10T08:06:06;11.20;99.90
2935;DHT22;2462;51.456;7.248;2023-01-10T08:08:33;11.20;99.90
2935;DHT22;2462;51.456;7.248;2023-01-10T08:10:59;11.20;99.90
2935;DHT22;2462;51.456;7.248;2023-01-10T08:13:27;11.30;99.90
2935;DHT22;2462;51.456;7.248;2023-01-10T08:15:52;11.30;99.90
2935;DHT22;2462;51.456;7.248;2023-01-10T08:18:19;11.30;99.90
2935;DHT22;2462;51.456;7.248;2023-01-10T08:20:47;11.30;99.90
2935;DHT22;2462;51.456;7.248;2023-01-10T08:23:12;11.40;99.90
2935;DHT22;2462;51.456;7.248;2023-01-10T08:25:38;11.40;99.90
2935;DHT22;2462;51.456;7.248;2023-01-10T08:28:04;11.40;99.90
2935;DHT22;2462;51.456;7.248;2023-01-10T08:30:30;11.50;99.90
2935;DHT22;2462;51.456;7.248;2023-01-10T08:32:55;11.50;99.90
2935;DHT22;2462;51.456;7.248;2023-01-10T08:35:21;11.50;99.90
2935;DHT22;2462;51.456;7.248;2023-01-10T08:37:46;11.50;99.90
2935;DHT22;2462;51.456;7.248;2023-01-10T08:40:12;11.50;99.90
2935;DHT22;2462;51.456;7.248;2023-01-10T08:42:38;11.50;99.90
2935;DHT22;2462;51.456;7.248;2023-01-10T08:45:04;11.50;99.90
2935;DHT22;2462;51.456;7.248;2023-01-10T08:47:29;11.50;99.90
2935;DHT22;2462;51.456;7.248;2023-01-10T08:49:55;11.50;99.90
2935;DHT22;2462;51.456;7.248;2023-01-10T08:52:20;11.60;99.90
2935;DHT22;2462;51.456;7.248;2023-01-10T08:54:46;11.60;99.90
2935;DHT22;2462;51.456;7.248;2023-01-10T08:57:12;11.70;99.90
2935;DHT22;2462;51.456;7.248;2023-01-10T08:59:37;11.80;99.90
2935;DHT22;2462;51.456;7.248;2023-01-10T09:02:03;11.80;99.90
2935;DHT22;2462;51.456;7.248;2023-01-10T09:04:29;11.80;99.90
2935;DHT22;2462;51.456;7.248;2023-01-10T09:06:56;11.90;99.90
2935;DHT22;2462;51.456;7.248;2023-01-10T09:09:22;11.90;99.90
2935;DHT22;2462;51.456;7.248;2023-01-10T09:11:47;11.90;99.90
2935;DHT22;2462;51.456;7.248;2023-01-10T09:14:14;11.90;99.90
2935;DHT22;2462;51.456;7.248;2023-01-10T09:16:40;12.00;99.90
2935;DHT22;2462;51.456;7.248;2023-01-10T09:19:06;12.00;99.90
2935;DHT22;2462;51.456;7.248;2023-01-10T09:21:32;12.00;99.90
2935;DHT22;2462;51.456;7.248;2023-01-10T09:23:57;12.00;99.90
2935;DHT22;2462;51.456;7.248;2023-01-10T09:26:23;12.00;99.90
2935;DHT22;2462;51.456;7.248;2023-01-10T09:28:48;12.00;99.90
2935;DHT22;2462;51.456;7.248;2023-01-10T09:31:14;12.00;99.90
2935;DHT22;2462;51.456;7.248;2023-01-10T09:33:40;12.00;99.90
2935;DHT22;2462;51.456;7.248;2023-01-10T09:36:07;12.00;99.90
2935;DHT22;2462;51.456;7.248;2023-01-10T09:38:33;12.00;99.90
2935;DHT22;2462;51.456;7.248;2023-01-10T09:44:11;12.10;99.90
2935;DHT22;2462;51.456;7.248;2023-01-10T09:52:35;12.20;99.90
2935;DHT22;2462;51.456;7.248;2023-01-10T09:55:20;12.20;99.90
2935;DHT22;2462;51.456;7.248;2023-01-10T09:57:47;12.20;99.90
2935;DHT22;2462;51.456;7.248;2023-01-10T10:00:20;12.20;99.90
2935;DHT22;2462;51.456;7.248;2023-01-10T10:02:49;12.20;99.90
2935;DHT22;2462;51.456;7.248;2023-01-10T10:05:21;12.30;99.90
2935;DHT22;2462;51.456;7.248;2023-01-10T10:08:13;12.30;99.90
2935;DHT22;2462;51.456;7.248;2023-01-10T10:10:49;12.30;99.90
2935;DHT22;2462;51.456;7.248;2023-01-10T10:13:40;12.30;99.90
2935;DHT22;2462;51.456;7.248;2023-01-10T10:16:23;12.40;99.90
2935;DHT22;2462;51.456;7.248;2023-01-10T10:26:34;12.50;99.90
2935;DHT22;2462;51.456;7.248;2023-01-10T10:37:17;12.60;99.90
2935;DHT22;2462;51.456;7.248;2023-01-10T10:39:53;12.60;99.90
2935;DHT22;2462;51.456;7.248;2023-01-10T10:42:19;12.70;99.90
2935;DHT22;2462;51.456;7.248;2023-01-10T10:44:55;12.70;99.90
2935;DHT22;2462;51.456;7.248;2023-01-10T10:47:26;12.60;99.90
2935;DHT22;2462;51.456;7.248;2023-01-10T10:50:15;12.70;99.90
2935;DHT22;2462;51.456;7.248;2023-01-10T10:52:43;12.70;99.90
2935;DHT22;2462;51.456;7.248;2023-01-10T10:55:17;12.70;99.90
2935;DHT22;2462;51.456;7.248;2023-01-10T10:57:45;12.80;99.90
2935;DHT22;2462;51.456;7.248;2023-01-10T11:00:17;12.80;99.90
2935;DHT22;2462;51.456;7.248;2023-01-10T11:03:09;12.80;99.90
2935;DHT22;2462;51.456;7.248;2023-01-10T11:05:40;12.80;99.90
2935;DHT22;2462;51.456;7.248;2023-01-10T11:08:08;12.90;99.90
2935;DHT22;2462;51.456;7.248;2023-01-10T11:10:36;12.80;99.90
2935;DHT22;2462;51.456;7.248;2023-01-10T11:13:16;12.90;99.90
2935;DHT22;2462;51.456;7.248;2023-01-10T11:15:47;12.90;99.90
2935;DHT22;2462;51.456;7.248;2023-01-10T11:18:19;13.00;99.90
2935;DHT22;2462;51.456;7.248;2023-01-10T11:20:53;13.00;99.90
2935;DHT22;2462;51.456;7.248;2023-01-10T11:23:27;13.00;99.90
2935;DHT22;2462;51.456;7.248;2023-01-10T11:25:54;13.10;99.90
2935;DHT22;2462;51.456;7.248;2023-01-10T11:28:24;13.10;99.90
2935;DHT22;2462;51.456;7.248;2023-01-10T11:30:51;13.10;99.90
2935;DHT22;2462;51.456;7.248;2023-01-10T11:33:25;13.10;99.90
2935;DHT22;2462;51.456;7.248;2023-01-10T11:36:00;13.20;99.90
2935;DHT22;2462;51.456;7.248;2023-01-10T11:38:26;13.20;99.90
2935;DHT22;2462;51.456;7.248;2023-01-10T11:43:41;13.30;99.90
2935;DHT22;2462;51.456;7.248;2023-01-10T11:46:16;13.30;99.90
2935;DHT22;2462;51.456;7.248;2023-01-10T11:49:12;13.40;99.90
2935;DHT22;2462;51.456;7.248;2023-01-10T11:51:46;13.40;99.90
2935;DHT22;2462;51.456;7.248;2023-01-10T11:54:24;13.40;99.90
2935;DHT22;2462;51.456;7.248;2023-01-10T11:56:56;13.50;99.90
2935;DHT22;2462;51.456;7.248;2023-01-10T11:59:22;13.50;99.90
2935;DHT22;2462;51.456;7.248;2023-01-10T12:01:56;13.50;99.90
2935;DHT22;2462;51.456;7.248;2023-01-10T12:04:23;13.50;99.90
2935;DHT22;2462;51.456;7.248;2023-01-10T12:06:55;13.50;99.90
2935;DHT22;2462;51.456;7.248;2023-01-10T12:09:32;13.50;99.90
2935;DHT22;2462;51.456;7.248;2023-01-10T12:12:03;13.60;99.90
2935;DHT22;2462;51.456;7.248;2023-01-10T12:14:29;13.60;99.90
2935;DHT22;2462;51.456;7.248;2023-01-10T12:16:58;13.60;99.90
2935;DHT22;2462;51.456;7.248;2023-01-10T12:19:25;13.60;99.90
2935;DHT22;2462;51.456;7.248;2023-01-10T12:21:53;13.60;99.90
2935;DHT22;2462;51.456;7.248;2023-01-10T12:24:34;13.60;99.90
2935;DHT22;2462;51.456;7.248;2023-01-10T12:27:04;13.60;99.90
2935;DHT22;2462;51.456;7.248;2023-01-10T12:29:35;13.60;99.90
2935;DHT22;2462;51.456;7.248;2023-01-10T12:32:04;13.60;99.90
2935;DHT22;2462;51.456;7.248;2023-01-10T12:34:44;13.60;99.90
2935;DHT22;2462;51.456;7.248;2023-01-10T12:37:33;13.60;99.90
2935;DHT22;2462;51.456;7.248;2023-01-10T12:45:31;13.60;99.90
2935;DHT22;2462;51.456;7.248;2023-01-10T12:48:08;13.60;99.90
2935;DHT22;2462;51.456;7.248;2023-01-10T12:50:52;13.60;99.90
2935;DHT22;2462;51.456;7.248;2023-01-10T12:56:15;13.60;99.90
2935;DHT22;2462;51.456;7.248;2023-01-10T12:58:50;13.60;99.90
2935;DHT22;2462;51.456;7.248;2023-01-10T13:01:20;13.60;99.90
2935;DHT22;2462;51.456;7.248;2023-01-10T13:03:56;13.60;99.90
2935;DHT22;2462;51.456;7.248;2023-01-10T13:06:37;13.70;99.90
2935;DHT22;2462;51.456;7.248;2023-01-10T13:09:12;13.70;99.90
2935;DHT22;2462;51.456;7.248;2023-01-10T13:14:26;13.70;99.90
2935;DHT22;2462;51.456;7.248;2023-01-10T13:17:48;13.70;99.90
2935;DHT22;2462;51.456;7.248;2023-01-10T13:22:46;13.70;99.90
2935;DHT22;2462;51.456;7.248;2023-01-10T13:27:54;13.70;99.90
2935;DHT22;2462;51.456;7.248;2023-01-10T13:30:31;13.70;99.90
2935;DHT22;2462;51.456;7.248;2023-01-10T13:33:06;13.70;99.90
2935;DHT22;2462;51.456;7.248;2023-01-10T13:35:42;13.70;99.90
2935;DHT22;2462;51.456;7.248;2023-01-10T13:38:32;13.70;99.90
2935;DHT22;2462;51.456;7.248;2023-01-10T13:41:08;13.70;99.90
2935;DHT22;2462;51.456;7.248;2023-01-10T13:44:10;13.60;99.90
2935;DHT22;2462;51.456;7.248;2023-01-10T13:46:38;13.60;99.90
2935;DHT22;2462;51.456;7.248;2023-01-10T13:51:36;13.60;99.90
2935;DHT22;2462;51.456;7.248;2023-01-10T13:56:42;13.60;99.90
2935;DHT22;2462;51.456;7.248;2023-01-10T14:02:23;13.50;99.90
2935;DHT22;2462;51.456;7.248;2023-01-10T14:05:16;13.50;99.90
2935;DHT22;2462;51.456;7.248;2023-01-10T14:07:47;13.50;99.90
2935;DHT22;2462;51.456;7.248;2023-01-10T14:10:23;13.50;99.90
2935;DHT22;2462;51.456;7.248;2023-01-10T14:13:06;13.40;99.90
2935;DHT22;2462;51.456;7.248;2023-01-10T14:15:43;13.40;99.90
2935;DHT22;2462;51.456;7.248;2023-01-10T14:18:20;13.40;99.90
2935;DHT22;2462;51.456;7.248;2023-01-10T14:21:05;13.30;99.90
2935;DHT22;2462;51.456;7.248;2023-01-10T14:26:00;13.30;99.90
2935;DHT22;2462;51.456;7.248;2023-01-10T14:28:29;13.30;99.90
2935;DHT22;2462;51.456;7.248;2023-01-10T14:31:07;13.20;99.90
2935;DHT22;2462;51.456;7.248;2023-01-10T14:33:34;13.20;99.90
2935;DHT22;2462;51.456;7.248;2023-01-10T14:36:07;13.20;99.90
2935;DHT22;2462;51.456;7.248;2023-01-10T14:38:34;13.10;99.90
2935;DHT22;2462;51.456;7.248;2023-01-10T14:41:42;13.10;99.90
2935;DHT22;2462;51.456;7.248;2023-01-10T14:46:46;13.10;99.90
2935;DHT22;2462;51.456;7.248;2023-01-10T14:49:34;13.10;99.90
2935;DHT22;2462;51.456;7.248;2023-01-10T14:54:36;13.00;99.90
2935;DHT22;2462;51.456;7.248;2023-01-10T14:57:02;13.00;99.90
2935;DHT22;2462;51.456;7.248;2023-01-10T14:59:30;12.90;99.90
2935;DHT22;2462;51.456;7.248;2023-01-10T15:02:11;12.90;99.90
2935;DHT22;2462;51.456;7.248;2023-01-10T15:04:49;12.90;99.90
2935;DHT22;2462;51.456;7.248;2023-01-10T15:07:15;12.90;99.90
2935;DHT22;2462;51.456;7.248;2023-01-10T15:09:48;12.90;99.90
2935;DHT22;2462;51.456;7.248;2023-01-10T15:12:15;12.80;99.90
2935;DHT22;2462;51.456;7.248;2023-01-10T15:14:42;12.80;99.90
2935;DHT22;2462;51.456;7.248;2023-01-10T15:17:14;12.80;99.90
2935;DHT22;2462;51.456;7.248;2023-01-10T15:19:42;12.80;99.90
2935;DHT22;2462;51.456;7.248;2023-01-10T15:22:26;12.70;99.90
2935;DHT22;2462;51.456;7.248;2023-01-10T15:25:25;12.70;99.90
2935;DHT22;2462;51.456;7.248;2023-01-10T15:27:53;12.70;99.90
2935;DHT22;2462;51.456;7.248;2023-01-10T15:30:23;12.70;99.90
2935;DHT22;2462;51.456;7.248;2023-01-10T15:32:51;12.70;99.90
2935;DHT22;2462;51.456;7.248;2023-01-10T15:35:21;12.70;99.90
2935;DHT22;2462;51.456;7.248;2023-01-10T15:38:01;12.60;99.90
2935;DHT22;2462;51.456;7.248;2023-01-10T15:40:32;12.60;99.90
2935;DHT22;2462;51.456;7.248;2023-01-10T15:45:45;12.60;99.90
2935;DHT22;2462;51.456;7.248;2023-01-10T15:48:34;12.50;99.90
2935;DHT22;2462;51.456;7.248;2023-01-10T15:51:10;12.50;99.90
2935;DHT22;2462;51.456;7.248;2023-01-10T15:53:59;12.50;99.90
2935;DHT22;2462;51.456;7.248;2023-01-10T15:56:41;12.50;99.90
2935;DHT22;2462;51.456;7.248;2023-01-10T15:59:33;12.50;99.90
2935;DHT22;2462;51.456;7.248;2023-01-10T16:02:24;12.50;99.90
2935;DHT22;2462;51.456;7.248;2023-01-10T16:04:58;12.40;99.90
2935;DHT22;2462;51.456;7.248;2023-01-10T16:07:32;12.40;99.90
2935;DHT22;2462;51.456;7.248;2023-01-10T16:10:04;12.40;99.90
2935;DHT22;2462;51.456;7.248;2023-01-10T16:12:38;12.40;99.90
2935;DHT22;2462;51.456;7.248;2023-01-10T16:15:25;12.30;99.90
2935;DHT22;2462;51.456;7.248;2023-01-10T16:17:51;12.30;99.90
2935;DHT22;2462;51.456;7.248;2023-01-10T16:20:19;12.30;99.90
2935;DHT22;2462;51.456;7.248;2023-01-10T16:22:46;12.30;99.90
2935;DHT22;2462;51.456;7.248;2023-01-10T16:25:25;12.30;99.90
2935;DHT22;2462;51.456;7.248;2023-01-10T16:27:51;12.30;99.90
2935;DHT22;2462;51.456;7.248;2023-01-10T16:32:50;12.30;99.90
2935;DHT22;2462;51.456;7.248;2023-01-10T16:35:16;12.30;99.90
2935;DHT22;2462;51.456;7.248;2023-01-10T16:37:44;12.20;99.90
2935;DHT22;2462;51.456;7.248;2023-01-10T16:40:25;12.20;99.90
2935;DHT22;2462;51.456;7.248;2023-01-10T16:42:52;12.30;99.90
2935;DHT22;2462;51.456;7.248;2023-01-10T16:45:36;12.20;99.90
2935;DHT22;2462;51.456;7.248;2023-01-10T16:48:02;12.20;99.90
2935;DHT22;2462;51.456;7.248;2023-01-10T16:50:28;12.20;99.90
2935;DHT22;2462;51.456;7.248;2023-01-10T16:52:53;12.20;99.90
2935;DHT22;2462;51.456;7.248;2023-01-10T16:55:22;12.20;99.90
2935;DHT22;2462;51.456;7.248;2023-01-10T16:57:49;12.20;99.90
2935;DHT22;2462;51.456;7.248;2023-01-10T17:00:16;12.20;99.90
2935;DHT22;2462;51.456;7.248;2023-01-10T17:02:42;12.20;99.90
2935;DHT22;2462;51.456;7.248;2023-01-10T17:05:09;12.20;99.90
2935;DHT22;2462;51.456;7.248;2023-01-10T17:07:35;12.20;99.90
2935;DHT22;2462;51.456;7.248;2023-01-10T17:10:01;12.20;99.90
2935;DHT22;2462;51.456;7.248;2023-01-10T17:12:31;12.20;99.90
2935;DHT22;2462;51.456;7.248;2023-01-10T17:14:59;12.20;99.90
2935;DHT22;2462;51.456;7.248;2023-01-10T17:17:25;12.20;99.90
2935;DHT22;2462;51.456;7.248;2023-01-10T17:19:51;12.20;99.90
2935;DHT22;2462;51.456;7.248;2023-01-10T17:22:17;12.10;99.90
2935;DHT22;2462;51.456;7.248;2023-01-10T17:24:43;12.10;99.90
2935;DHT22;2462;51.456;7.248;2023-01-10T17:27:08;12.10;99.90
2935;DHT22;2462;51.456;7.248;2023-01-10T17:29:34;12.10;99.90
2935;DHT22;2462;51.456;7.248;2023-01-10T17:31:59;12.10;99.90
2935;DHT22;2462;51.456;7.248;2023-01-10T17:34:25;12.10;99.90
2935;DHT22;2462;51.456;7.248;2023-01-10T17:36:51;12.00;99.90
2935;DHT22;2462;51.456;7.248;2023-01-10T17:39:16;12.00;99.90
2935;DHT22;2462;51.456;7.248;2023-01-10T17:41:42;12.00;99.90
2935;DHT22;2462;51.456;7.248;2023-01-10T17:44:08;12.00;99.90
2935;DHT22;2462;51.456;7.248;2023-01-10T17:46:34;12.00;99.90
2935;DHT22;2462;51.456;7.248;2023-01-10T17:49:00;12.00;99.90
2935;DHT22;2462;51.456;7.248;2023-01-10T17:51:26;12.00;99.90
2935;DHT22;2462;51.456;7.248;2023-01-10T17:53:56;12.00;99.90